Time;durP1;ratioP1;P1;durP2;ratioP2;P2;SDS_P1;SDS_P2;PMS_P1;PMS_P2;Temp;Humidity;BMP_temperature;BMP_pressure;BME280_temperature;BME280_humidity;BME280_pressure;Samples;Min_cycle;Max_cycle;Signal;HPM_P1;HPM_P2
2021/04/15 00:01:59;;;;;;;5.53;3.40;;;;;;;1.65;100.00;102751.06;6225111;28;20103;-74
2021/04/15 00:05:00;;;;;;;9.25;3.58;;;;;;;1.59;100.00;102749.25;6225388;28;20058;-74
2021/04/15 00:08:01;;;;;;;8.02;3.38;;;;;;;1.48;100.00;102756.81;6240632;28;20056;-74
2021/04/15 00:11:03;;;;;;;10.30;3.53;;;;;;;1.46;100.00;102753.34;6236445;28;20057;-74
2021/04/15 00:14:05;;;;;;;10.85;4.50;;;;;;;1.38;100.00;102747.16;6236931;28;20057;-74
2021/04/15 00:17:07;;;;;;;14.48;5.68;;;;;;;1.37;100.00;102748.00;6245436;28;20076;-75
2021/04/15 00:20:08;;;;;;;6.35;3.53;;;;;;;1.32;100.00;102747.06;6240473;28;20050;-74
2021/04/15 00:23:09;;;;;;;8.43;3.80;;;;;;;1.33;100.00;102745.34;6248909;28;20076;-74
2021/04/15 00:26:13;;;;;;;11.68;3.95;;;;;;;1.32;100.00;102744.47;6248726;28;20053;-74
2021/04/15 00:29:14;;;;;;;6.15;3.15;;;;;;;1.34;100.00;102737.59;6234206;28;20532;-74
2021/04/15 00:32:16;;;;;;;8.13;4.18;;;;;;;1.39;100.00;102746.31;6246043;28;20124;-74
2021/04/15 00:35:17;;;;;;;9.20;3.78;;;;;;;1.45;100.00;102745.53;6240254;28;20049;-75
2021/04/15 00:38:20;;;;;;;11.00;4.10;;;;;;;1.45;100.00;102741.25;6248562;28;20045;-74
2021/04/15 00:41:22;;;;;;;10.38;4.25;;;;;;;1.48;100.00;102737.81;6248505;28;20505;-74
2021/04/15 00:44:23;;;;;;;13.38;4.95;;;;;;;1.47;100.00;102738.66;6248335;28;20080;-74
2021/04/15 00:47:28;;;;;;;10.63;4.72;;;;;;;1.38;100.00;102736.78;6248204;28;20057;-74
2021/04/15 00:50:34;;;;;;;10.13;3.80;;;;;;;1.27;100.00;102735.72;6248683;28;20076;-74
2021/04/15 00:53:39;;;;;;;11.20;3.80;;;;;;;1.28;100.00;102732.31;6247866;28;20041;-74
2021/04/15 00:56:41;;;;;;;11.20;4.47;;;;;;;1.28;100.00;102729.72;6248015;28;20398;-74
2021/04/15 00:59:42;;;;;;;12.98;4.00;;;;;;;1.21;100.00;102740.81;6248019;28;20492;-74
2021/04/15 01:02:43;;;;;;;20.00;5.00;;;;;;;1.22;100.00;102746.00;6248039;28;20148;-74
2021/04/15 01:05:47;;;;;;;8.35;3.92;;;;;;;1.27;100.00;102743.50;6247615;28;20061;-74
2021/04/15 01:08:48;;;;;;;11.02;5.35;;;;;;;1.26;100.00;102732.25;6248159;28;20490;-74
2021/04/15 01:12:05;;;;;;;12.65;4.70;;;;;;;1.25;100.00;102740.88;6247769;28;20056;-74
2021/04/15 01:15:15;;;;;;;12.32;4.35;;;;;;;1.21;100.00;102738.22;6247502;28;20076;-74
2021/04/15 01:18:24;;;;;;;9.30;4.90;;;;;;;1.14;100.00;102734.66;6247667;28;20049;-74
2021/04/15 01:21:47;;;;;;;16.40;5.65;;;;;;;1.10;100.00;102742.34;6246488;28;20041;-74
2021/04/15 01:24:55;;;;;;;13.15;4.78;;;;;;;0.99;100.00;102736.97;6237277;28;20050;-74
2021/04/15 01:28:05;;;;;;;14.75;6.00;;;;;;;0.94;100.00;102738.59;6238937;28;20049;-74
2021/04/15 01:31:14;;;;;;;12.77;5.03;;;;;;;0.89;100.00;102733.34;6247588;28;20053;-74
2021/04/15 01:34:22;;;;;;;10.50;4.85;;;;;;;0.83;100.00;102742.72;6246989;28;20060;-74
2021/04/15 01:37:30;;;;;;;14.32;5.13;;;;;;;0.74;100.00;102741.69;6247393;28;20045;-75
2021/04/15 01:40:35;;;;;;;6.40;4.35;;;;;;;0.66;100.00;102735.50;6247209;28;20046;-75
2021/04/15 01:43:40;;;;;;;7.30;4.72;;;;;;;0.55;100.00;102739.59;6242305;28;20417;-74
2021/04/15 01:46:43;;;;;;;10.20;5.38;;;;;;;0.55;100.00;102733.53;6240227;28;20409;-74
2021/04/15 01:49:47;;;;;;;9.00;4.72;;;;;;;0.51;100.00;102735.19;6247039;28;20631;-74
2021/04/15 01:52:52;;;;;;;13.35;4.93;;;;;;;0.45;100.00;102738.50;6246913;28;20107;-74
2021/04/15 01:55:58;;;;;;;8.07;4.25;;;;;;;0.49;100.00;102742.03;6246916;28;20416;-74
2021/04/15 01:59:04;;;;;;;7.82;5.05;;;;;;;0.36;100.00;102748.66;6247217;28;20046;-74
2021/04/15 02:02:13;;;;;;;12.02;4.88;;;;;;;0.40;100.00;102745.31;6247048;28;20057;-74
2021/04/15 02:05:18;;;;;;;12.23;5.05;;;;;;;0.44;100.00;102747.13;6246611;28;20060;-74
2021/04/15 02:08:23;;;;;;;7.95;4.82;;;;;;;0.41;100.00;102759.09;6246906;28;20053;-74
2021/04/15 02:11:32;;;;;;;14.30;6.03;;;;;;;0.38;100.00;102754.75;6246518;28;20506;-74
2021/04/15 02:14:35;;;;;;;9.27;5.40;;;;;;;0.38;100.00;102759.06;6246432;28;20421;-75
2021/04/15 02:17:40;;;;;;;11.23;4.72;;;;;;;0.37;100.00;102757.31;6245963;28;20135;-75
2021/04/15 02:20:41;;;;;;;13.10;5.00;;;;;;;0.34;100.00;102758.13;6246951;28;20045;-75
2021/04/15 02:23:49;;;;;;;10.02;5.00;;;;;;;0.31;100.00;102759.75;6246228;28;20060;-75
2021/04/15 02:26:58;;;;;;;10.95;5.68;;;;;;;0.28;100.00;102760.56;6246434;28;20417;-74
2021/04/15 02:30:11;;;;;;;9.88;4.82;;;;;;;0.30;100.00;102756.28;6246346;28;20046;-75
2021/04/15 02:33:19;;;;;;;13.52;5.50;;;;;;;0.25;100.00;102758.78;6246078;28;20543;-75
2021/04/15 02:36:23;;;;;;;15.73;5.90;;;;;;;0.22;100.00;102758.72;6246497;28;20083;-74
2021/04/15 02:39:27;;;;;;;21.60;5.43;;;;;;;0.22;100.00;102765.59;6246316;28;20049;-74
2021/04/15 02:42:34;;;;;;;10.90;5.75;;;;;;;0.22;100.00;102770.75;6246266;28;20046;-74
2021/04/15 02:45:40;;;;;;;12.13;5.68;;;;;;;0.23;100.00;102767.38;6246151;28;20386;-75
2021/04/15 02:48:43;;;;;;;10.68;5.50;;;;;;;0.24;100.00;102767.38;6246198;28;20053;-74
2021/04/15 02:51:47;;;;;;;13.45;6.35;;;;;;;0.20;100.00;102760.41;6246145;28;20053;-74
2021/04/15 02:54:52;;;;;;;10.65;5.28;;;;;;;0.17;100.00;102760.31;6245762;28;20049;-74
2021/04/15 02:57:58;;;;;;;17.33;6.05;;;;;;;0.14;100.00;102770.63;6246115;28;20050;-74
2021/04/15 03:01:01;;;;;;;14.95;6.90;;;;;;;0.13;100.00;102768.84;6246152;28;20552;-74
2021/04/15 03:04:07;;;;;;;11.95;5.60;;;;;;;0.11;100.00;102757.63;6245799;28;20050;-74
2021/04/15 03:07:11;;;;;;;11.60;5.90;;;;;;;0.11;100.00;102765.38;6245875;28;20054;-74
2021/04/15 03:10:15;;;;;;;12.63;6.25;;;;;;;-0.01;100.00;102765.94;6245924;28;20107;-74
2021/04/15 03:13:20;;;;;;;13.30;6.38;;;;;;;0.00;100.00;102764.28;6245908;28;20049;-74
2021/04/15 03:16:24;;;;;;;14.90;6.78;;;;;;;0.01;100.00;102762.56;6246211;28;20049;-74
2021/04/15 03:19:31;;;;;;;14.13;5.93;;;;;;;0.01;100.00;102758.25;6245741;28;20072;-74
2021/04/15 03:22:38;;;;;;;16.73;6.65;;;;;;;0.08;100.00;102764.41;6245715;28;20104;-74
2021/04/15 03:25:40;;;;;;;18.65;6.18;;;;;;;0.14;100.00;102773.22;6245784;28;20057;-75
2021/04/15 03:28:48;;;;;;;17.45;6.18;;;;;;;0.14;100.00;102769.75;6248036;28;20053;-74
2021/04/15 03:32:01;;;;;;;20.17;6.97;;;;;;;0.04;100.00;102763.47;6250276;28;20616;-74
2021/04/15 03:35:09;;;;;;;16.55;6.40;;;;;;;0.00;100.00;102769.44;6249919;28;20065;-74
2021/04/15 03:38:14;;;;;;;18.67;7.60;;;;;;;-0.06;100.00;102770.16;6249779;28;20425;-74
2021/04/15 03:41:22;;;;;;;11.63;5.60;;;;;;;-0.11;100.00;102773.47;6249765;28;20049;-74
2021/04/15 03:44:29;;;;;;;15.73;6.68;;;;;;;-0.20;100.00;102781.88;6249863;28;20136;-75
2021/04/15 03:47:35;;;;;;;14.48;6.05;;;;;;;-0.21;100.00;102780.13;6249631;28;20512;-74
2021/04/15 03:50:45;;;;;;;12.80;6.30;;;;;;;-0.26;100.00;102789.50;6249920;28;20049;-75
2021/04/15 03:53:50;;;;;;;16.13;6.85;;;;;;;-0.32;100.00;102779.91;6249291;28;20061;-74
2021/04/15 03:56:55;;;;;;;16.23;6.03;;;;;;;-0.34;100.00;102781.53;6249667;28;20053;-74
2021/04/15 04:00:04;;;;;;;11.77;5.75;;;;;;;-0.33;100.00;102790.16;6249511;28;20045;-74
2021/04/15 04:03:09;;;;;;;17.37;6.63;;;;;;;-0.33;100.00;102785.00;6249385;28;20045;-74
2021/04/15 04:06:15;;;;;;;12.32;6.45;;;;;;;-0.38;100.00;102789.19;6249313;28;20057;-74
2021/04/15 04:09:22;;;;;;;14.48;6.68;;;;;;;-0.37;100.00;102796.09;6249376;28;20123;-74
2021/04/15 04:12:29;;;;;;;13.68;6.72;;;;;;;-0.42;100.00;102795.97;6249208;28;20132;-74
2021/04/15 04:15:36;;;;;;;15.52;6.60;;;;;;;-0.45;100.00;102798.50;6249129;28;20145;-74
2021/04/15 04:18:48;;;;;;;15.63;7.05;;;;;;;-0.42;100.00;102797.69;6249006;28;20053;-74
2021/04/15 04:21:57;;;;;;;14.45;6.72;;;;;;;-0.44;100.00;102801.97;6249172;28;20050;-74
2021/04/15 04:25:08;;;;;;;13.90;6.18;;;;;;;-0.49;100.00;102806.13;6248707;28;20050;-74
2021/04/15 04:28:15;;;;;;;19.50;6.78;;;;;;;-0.44;100.00;102802.81;6273470;23;20045;-73
2021/04/15 04:31:20;;;;;;;13.27;6.80;;;;;;;-0.44;100.00;102808.00;6273271;28;20167;-74
2021/04/15 04:34:23;;;;;;;18.45;6.95;;;;;;;-0.42;100.00;102801.13;6273101;28;20049;-73
2021/04/15 04:37:30;;;;;;;14.00;7.07;;;;;;;-0.39;100.00;102814.13;6262699;28;20049;-73
2021/04/15 04:40:34;;;;;;;20.23;7.72;;;;;;;-0.35;100.00;102812.50;6247876;28;20122;-73
2021/04/15 04:43:42;;;;;;;20.42;8.50;;;;;;;-0.31;100.00;102816.94;6248314;28;20053;-73
2021/04/15 04:46:46;;;;;;;23.17;9.15;;;;;;;-0.24;100.00;102820.53;6248401;28;20049;-73
2021/04/15 04:49:55;;;;;;;20.83;8.52;;;;;;;-0.16;100.00;102816.41;6248235;28;20042;-73
2021/04/15 04:52:59;;;;;;;23.02;8.93;;;;;;;-0.16;100.00;102819.00;6247956;28;20053;-73
2021/04/15 04:56:18;;;;;;;19.80;9.05;;;;;;;-0.09;100.00;102815.72;6248214;28;20057;-73
2021/04/15 04:59:24;;;;;;;30.30;9.90;;;;;;;-0.07;100.00;102816.63;6247875;28;20052;-74
2021/04/15 05:02:25;;;;;;;25.65;9.98;;;;;;;-0.03;100.00;102827.09;6248379;28;20045;-74
2021/04/15 05:05:29;;;;;;;22.50;10.55;;;;;;;0.00;100.00;102826.31;6247620;28;20045;-77
2021/04/15 05:08:39;;;;;;;21.08;9.60;;;;;;;0.03;100.00;102833.22;6248105;28;20061;-73
2021/04/15 05:11:42;;;;;;;21.63;9.73;;;;;;;0.00;100.00;102831.47;6247657;28;20403;-73
2021/04/15 05:14:43;;;;;;;24.92;10.02;;;;;;;0.04;100.00;102837.56;6247634;28;20045;-73
2021/04/15 05:17:46;;;;;;;17.90;9.50;;;;;;;0.10;100.00;102836.00;6244018;28;20054;-73
2021/04/15 05:20:47;;;;;;;24.67;11.07;;;;;;;0.11;100.00;102839.47;6223100;28;20057;-73
2021/04/15 05:23:54;;;;;;;32.85;11.20;;;;;;;0.13;100.00;102837.78;6222829;28;20049;-73
2021/04/15 05:26:58;;;;;;;23.30;11.13;;;;;;;0.17;100.00;102835.28;6229384;28;20041;-73
2021/04/15 05:30:14;;;;;;;36.45;14.18;;;;;;;0.19;100.00;102836.22;6227713;28;20425;-73
2021/04/15 05:33:18;;;;;;;20.98;10.95;;;;;;;0.28;100.00;102840.75;6222543;28;20096;-77
2021/04/15 05:36:22;;;;;;;31.95;12.02;;;;;;;0.36;100.00;102841.75;6228279;28;20046;-73
2021/04/15 05:39:24;;;;;;;33.00;16.17;;;;;;;0.34;100.00;102837.41;6232211;28;20056;-73
2021/04/15 05:42:32;;;;;;;24.73;11.25;;;;;;;0.37;100.00;102843.53;6234309;28;20132;-73
2021/04/15 05:45:35;;;;;;;24.63;11.15;;;;;;;0.41;100.00;102850.53;6234624;28;20421;-73
2021/04/15 05:48:38;;;;;;;26.20;9.93;;;;;;;0.42;100.00;102853.97;6233154;28;20430;-73
2021/04/15 05:51:45;;;;;;;23.08;11.45;;;;;;;0.52;100.00;102855.06;6231911;28;20046;-73
2021/04/15 05:54:48;;;;;;;20.15;10.73;;;;;;;0.61;100.00;102857.84;6234775;28;20060;-73
2021/04/15 05:57:54;;;;;;;22.98;11.60;;;;;;;0.65;100.00;102863.13;6231847;28;20073;-73
2021/04/15 06:01:00;;;;;;;25.35;11.82;;;;;;;0.83;100.00;102872.13;6228398;28;20482;-73
2021/04/15 06:04:07;;;;;;;26.75;11.77;;;;;;;0.74;100.00;102865.91;6233246;28;20045;-73
2021/04/15 06:07:19;;;;;;;26.77;11.63;;;;;;;0.78;100.00;102874.59;6224594;28;20049;-74
2021/04/15 06:10:24;;;;;;;28.00;12.07;;;;;;;0.77;100.00;102880.59;6234233;28;20049;-74
2021/04/15 06:13:32;;;;;;;22.35;11.10;;;;;;;0.81;100.00;102881.53;6232477;28;20505;-73
2021/04/15 06:16:42;;;;;;;24.75;11.43;;;;;;;0.82;100.00;102884.19;6231836;28;20056;-73
2021/04/15 06:19:47;;;;;;;37.42;12.45;;;;;;;0.86;100.00;102883.38;6234030;28;20053;-73
2021/04/15 06:22:52;;;;;;;27.75;10.93;;;;;;;0.86;100.00;102885.97;6231270;28;20052;-73
2021/04/15 06:25:56;;;;;;;23.50;10.75;;;;;;;0.84;100.00;102885.06;6229396;28;20087;-73
2021/04/15 06:29:01;;;;;;;27.48;12.13;;;;;;;0.92;100.00;102885.25;6221749;28;20069;-73
2021/04/15 06:32:04;;;;;;;22.25;11.05;;;;;;;0.97;100.00;102889.69;6222326;28;20049;-73
2021/04/15 06:35:07;;;;;;;29.38;12.15;;;;;;;1.00;100.00;102883.69;6221643;28;20054;-74
2021/04/15 06:38:15;;;;;;;23.77;11.00;;;;;;;1.11;100.00;102889.94;6221914;28;20057;-73
2021/04/15 06:41:38;;;;;;;25.73;11.90;;;;;;;1.16;100.00;102883.16;6221775;28;20525;-74
2021/04/15 06:45:17;;;;;;;24.30;11.05;;;;;;;1.24;100.00;102883.31;6221564;28;20465;-74
2021/04/15 06:48:55;;;;;;;22.05;11.23;;;;;;;1.33;100.00;102880.91;6221601;28;20553;-73
2021/04/15 06:52:02;;;;;;;20.92;10.10;;;;;;;1.51;100.00;102886.44;6221766;28;20153;-73
2021/04/15 06:55:18;;;;;;;18.80;10.25;;;;;;;1.47;100.00;102892.38;6221540;28;20414;-73
2021/04/15 06:58:32;;;;;;;25.35;10.27;;;;;;;1.55;100.00;102886.50;6221847;28;20050;-73
2021/04/15 07:02:03;;;;;;;20.58;10.18;;;;;;;1.63;100.00;102883.16;6222439;28;20045;-74
2021/04/15 07:05:09;;;;;;;20.75;10.38;;;;;;;1.74;100.00;102880.78;6226239;28;20065;-74
2021/04/15 07:08:24;;;;;;;20.23;10.95;;;;;;;1.98;100.00;102880.31;6225897;28;20430;-73
2021/04/15 07:11:42;;;;;;;21.83;9.63;;;;;;;2.00;96.47;102881.25;6226140;28;20042;-75
2021/04/15 07:15:00;;;;;;;17.27;9.35;;;;;;;2.05;96.64;102882.19;6225864;28;20054;-74
2021/04/15 07:18:10;;;;;;;19.52;8.73;;;;;;;2.12;96.51;102877.94;6226258;28;20081;-73
2021/04/15 07:21:30;;;;;;;20.75;7.90;;;;;;;2.25;92.07;102877.28;6225685;28;20046;-74
2021/04/15 07:24:38;;;;;;;18.17;9.57;;;;;;;2.48;92.21;102880.22;6236645;28;20128;-74
2021/04/15 07:28:04;;;;;;;16.77;8.35;;;;;;;2.59;89.14;102875.19;6235043;28;20451;-74
2021/04/15 07:31:34;;;;;;;15.93;8.30;;;;;;;2.65;90.38;102878.75;6250316;28;20041;-74
2021/04/15 07:35:03;;;;;;;15.88;8.10;;;;;;;2.73;90.26;102881.47;6249955;28;20060;-74
2021/04/15 07:38:34;;;;;;;13.38;6.57;;;;;;;2.75;89.73;102892.72;6250141;28;20050;-74
2021/04/15 07:41:57;;;;;;;17.65;7.25;;;;;;;2.78;89.55;102888.44;6250045;28;20498;-74
2021/04/15 07:45:01;;;;;;;18.38;6.13;;;;;;;2.89;88.90;102895.50;6249553;28;20050;-74
2021/04/15 07:48:31;;;;;;;16.67;7.32;;;;;;;2.92;89.00;102898.16;6249754;28;20052;-74
2021/04/15 07:51:50;;;;;;;16.75;7.00;;;;;;;3.02;90.21;102900.88;6235442;28;20053;-74
2021/04/15 07:55:15;;;;;;;12.73;5.85;;;;;;;3.37;86.03;102896.97;6249590;28;20057;-73
2021/04/15 07:58:32;;;;;;;12.60;6.00;;;;;;;3.30;85.87;102898.59;6249743;28;20095;-73
2021/04/15 08:01:59;;;;;;;13.07;6.10;;;;;;;3.25;87.68;102902.88;6249295;28;20406;-73
2021/04/15 08:05:18;;;;;;;12.50;5.72;;;;;;;3.56;84.35;102904.97;6232885;28;20058;-74
2021/04/15 08:08:48;;;;;;;18.80;7.68;;;;;;;3.50;85.11;102901.44;6248309;28;20049;-74
2021/04/15 08:12:15;;;;;;;12.02;6.47;;;;;;;3.52;86.44;102898.00;6232974;28;20053;-74
2021/04/15 08:15:31;;;;;;;18.10;6.50;;;;;;;3.65;83.46;102888.59;6223505;28;20052;-73
2021/04/15 08:18:39;;;;;;;13.05;3.78;;;;;;;4.05;75.67;102889.81;6224277;28;20546;-73
2021/04/15 08:21:44;;;;;;;8.80;3.83;;;;;;;4.03;74.29;102886.31;6224829;28;20053;-75
2021/04/15 08:24:58;;;;;;;14.93;5.10;;;;;;;4.07;77.50;102888.09;6224012;28;20058;-74
2021/04/15 08:28:27;;;;;;;13.15;5.20;;;;;;;4.49;76.71;102896.19;6224295;28;20049;-75
2021/04/15 08:31:47;;;;;;;9.65;4.38;;;;;;;4.24;76.51;102896.03;6224500;28;20506;-76
2021/04/15 08:34:57;;;;;;;13.68;4.70;;;;;;;4.41;74.19;102890.09;6224352;28;20605;-77
2021/04/15 08:38:11;;;;;;;15.75;3.95;;;;;;;4.64;74.48;102895.44;6224404;28;20046;-75
2021/04/15 08:41:23;;;;;;;9.43;3.65;;;;;;;4.56;73.93;102892.78;6223655;28;20057;-75
2021/04/15 08:44:38;;;;;;;10.50;3.67;;;;;;;4.66;74.08;102889.38;6223691;28;20053;-74
2021/04/15 08:47:58;;;;;;;10.48;3.72;;;;;;;4.68;74.97;102895.47;6223689;28;20046;-73
2021/04/15 08:51:20;;;;;;;10.60;3.78;;;;;;;4.75;74.52;102897.22;6223698;28;20078;-74
2021/04/15 08:54:37;;;;;;;6.00;2.70;;;;;;;4.81;72.61;102894.69;6223547;28;20124;-74
2021/04/15 08:57:45;;;;;;;9.43;3.00;;;;;;;4.76;72.62;102890.28;6223444;28;20050;-72
2021/04/15 09:00:56;;;;;;;6.18;1.85;;;;;;;4.97;69.48;102887.78;6223673;28;20478;-75
2021/04/15 09:04:04;;;;;;;6.15;2.60;;;;;;;5.08;67.98;102886.09;6223148;28;20053;-74
2021/04/15 09:07:11;;;;;;;5.68;3.13;;;;;;;5.00;72.24;102898.25;6222160;28;20080;-74
2021/04/15 09:10:21;;;;;;;5.30;2.67;;;;;;;5.36;66.91;102896.63;6222931;28;20418;-74
2021/04/15 09:13:35;;;;;;;8.38;3.35;;;;;;;5.26;66.91;102892.22;6222809;28;20138;-74
2021/04/15 09:16:39;;;;;;;10.70;3.22;;;;;;;5.29;68.26;102893.13;6222794;28;20046;-75
2021/04/15 09:19:53;;;;;;;8.80;2.70;;;;;;;5.30;69.50;102894.84;6237809;28;20409;-75
2021/04/15 09:23:20;;;;;;;9.57;2.78;;;;;;;5.69;64.65;102890.63;6246320;28;20406;-75
2021/04/15 09:26:41;;;;;;;6.53;2.40;;;;;;;5.64;63.46;102881.91;6246865;28;20052;-74
2021/04/15 09:29:54;;;;;;;8.93;3.47;;;;;;;5.64;66.55;102888.88;6247261;28;20053;-72
2021/04/15 09:33:04;;;;;;;9.80;4.10;;;;;;;5.93;64.98;102886.31;6246451;28;20648;-72
2021/04/15 09:36:12;;;;;;;9.45;4.28;;;;;;;5.88;67.18;102883.66;6247031;28;20053;-72
2021/04/15 09:39:25;;;;;;;12.57;3.20;;;;;;;5.99;67.83;102883.69;6234561;28;20100;-76
2021/04/15 09:43:02;;;;;;;5.50;3.40;;;;;;;6.22;64.41;102881.06;6232448;28;20045;-74
2021/04/15 09:46:13;;;;;;;6.70;3.45;;;;;;;6.21;64.59;102884.56;6234706;28;20095;-71
2021/04/15 09:49:26;;;;;;;6.03;2.90;;;;;;;6.23;64.65;102883.72;6225347;28;20054;-72
2021/04/15 09:52:44;;;;;;;5.68;2.30;;;;;;;6.65;58.36;102878.41;6231551;28;20060;-72
2021/04/15 09:56:14;;;;;;;6.78;2.65;;;;;;;6.75;55.70;102873.13;6233432;28;20058;-71
2021/04/15 09:59:28;;;;;;;6.72;2.38;;;;;;;6.56;57.35;102864.50;6245225;28;20092;-72
2021/04/15 10:02:36;;;;;;;5.82;2.22;;;;;;;6.53;59.55;102861.00;6246280;28;20471;-72
2021/04/15 10:05:50;;;;;;;5.68;2.65;;;;;;;6.53;60.05;102858.41;6246914;28;20061;-73
2021/04/15 10:09:08;;;;;;;5.60;2.22;;;;;;;6.95;58.32;102853.88;6245354;28;20395;-73
2021/04/15 10:12:27;;;;;;;5.47;1.90;;;;;;;6.98;58.37;102859.97;6243921;28;20041;-74
2021/04/15 10:15:51;;;;;;;5.30;1.90;;;;;;;7.06;58.84;102857.34;6221307;28;20054;-72
2021/04/15 10:19:22;;;;;;;9.55;2.70;;;;;;;7.27;59.32;102859.00;6216444;28;20053;-73
2021/04/15 10:22:37;;;;;;;6.10;2.92;;;;;;;7.50;57.88;102858.84;6222040;28;20046;-74
2021/04/15 10:25:40;;;;;;;6.00;2.95;;;;;;;7.31;57.56;102845.88;6221485;28;20491;-73
2021/04/15 10:28:59;;;;;;;12.88;3.05;;;;;;;7.21;61.14;102848.53;6249537;23;20461;-82
2021/04/15 10:32:19;;;;;;;6.78;2.80;;;;;;;7.49;58.34;102842.25;6280515;28;20045;-82
2021/04/15 10:35:52;;;;;;;3.97;2.20;;;;;;;7.47;57.67;102838.78;6281282;28;20444;-81
2021/04/15 10:39:12;;;;;;;4.40;2.20;;;;;;;7.86;54.75;102840.25;6267402;28;20421;-82
2021/04/15 10:42:30;;;;;;;3.17;1.90;;;;;;;7.88;51.51;102827.13;6261732;28;20050;-83
2021/04/15 10:46:10;;;;;;;4.10;2.08;;;;;;;8.13;50.37;102833.03;6259105;28;20045;-81
2021/04/15 10:49:16;;;;;;;;;;;;;;;7.81;50.13;102834.19;6262457;28;20056;-84
2021/04/15 10:52:35;;;;;;;3.25;1.40;;;;;;;7.66;51.59;102826.44;6254776;28;19944;-85
2021/04/15 10:55:44;;;;;;;5.95;1.65;;;;;;;7.61;50.79;102823.84;6252428;28;20150;-85
2021/04/15 10:58:49;;;;;;;7.47;2.65;;;;;;;7.87;52.35;102821.03;6259376;28;20080;-84
2021/04/15 11:01:50;;;;;;;3.00;1.90;;;;;;;8.28;51.63;102819.78;6255757;28;20045;-85
2021/04/15 11:04:54;;;;;;;3.63;1.60;;;;;;;8.69;48.17;102815.00;6250107;28;20056;-83
2021/04/15 11:08:06;;;;;;;3.60;1.48;;;;;;;8.87;52.84;102817.38;6236989;28;20054;-84
2021/04/15 11:11:10;;;;;;;4.45;1.90;;;;;;;8.90;47.83;102817.31;6254354;28;20053;-82
2021/04/15 11:14:12;;;;;;;8.90;2.35;;;;;;;8.80;45.83;102813.94;6252424;28;20050;-83
2021/04/15 11:17:17;;;;;;;3.05;2.10;;;;;;;8.71;50.05;102802.72;6260669;28;20049;-83
2021/04/15 11:20:29;;;;;;;4.85;1.90;;;;;;;9.11;47.22;102805.69;6258533;28;20089;-82
2021/04/15 11:23:34;;;;;;;9.88;2.65;;;;;;;9.39;48.51;102803.50;6241082;28;20172;-82
2021/04/15 11:26:44;;;;;;;5.40;1.98;;;;;;;9.37;47.48;102787.81;6234105;28;20057;-83
2021/04/15 11:29:49;;;;;;;7.57;2.80;;;;;;;9.57;46.17;102800.59;6232567;28;20075;-82
2021/04/15 11:32:50;;;;;;;5.88;2.17;;;;;;;9.33;48.29;102795.75;6229350;28;20046;-82
2021/04/15 11:36:03;;;;;;;6.47;2.70;;;;;;;8.84;46.83;102785.94;6234627;28;20049;-83
2021/04/15 11:39:19;;;;;;;4.90;2.50;;;;;;;8.36;49.42;102789.16;6236150;28;20042;-85
2021/04/15 11:42:20;;;;;;;10.60;2.53;;;;;;;8.32;51.93;102783.94;6258703;28;20560;-84
2021/04/15 11:45:29;;;;;;;5.20;1.80;;;;;;;8.91;47.15;102784.13;6253995;28;20053;-82
2021/04/15 11:48:30;;;;;;;6.05;1.88;;;;;;;9.36;49.13;102783.44;6252913;28;20057;-84
2021/04/15 11:51:36;;;;;;;3.95;2.08;;;;;;;9.88;46.13;102774.69;6251811;28;20059;-84
2021/04/15 11:54:40;;;;;;;2.65;1.23;;;;;;;10.23;42.23;102773.19;6253605;28;20045;-83
2021/04/15 11:57:51;;;;;;;4.25;1.55;;;;;;;10.91;38.45;102767.41;6262278;28;20045;-84
2021/04/15 12:00:58;;;;;;;5.70;1.42;;;;;;;10.69;39.24;102763.53;6260705;28;20045;-83
2021/04/15 12:04:01;;;;;;;7.95;1.30;;;;;;;10.38;39.19;102772.03;6261631;28;20045;-83
2021/04/15 12:07:09;;;;;;;4.00;1.60;;;;;;;9.76;42.23;102776.66;6263156;28;20050;-83
2021/04/15 12:10:13;;;;;;;4.03;1.48;;;;;;;9.56;41.23;102774.38;6260593;28;20551;-82
2021/04/15 12:13:20;;;;;;;4.60;1.80;;;;;;;9.23;40.20;102788.91;6256742;28;20049;-80
2021/04/15 12:16:25;;;;;;;3.20;1.10;;;;;;;8.80;43.42;102773.75;6259609;28;20498;-82
2021/04/15 12:19:35;;;;;;;2.75;1.20;;;;;;;8.72;44.25;102767.75;6254110;28;20390;-81
2021/04/15 12:22:39;;;;;;;17.30;2.42;;;;;;;9.14;47.80;102766.31;6253424;28;20050;-82
2021/04/15 12:25:47;;;;;;;4.28;1.40;;;;;;;10.01;40.16;102762.22;6258177;28;20057;-83
2021/04/15 12:28:57;;;;;;;3.42;1.60;;;;;;;10.23;39.74;102764.44;6259417;28;20174;-84
2021/04/15 12:32:02;;;;;;;;;;;;;;;9.89;37.64;102758.03;6259610;28;20053;-81
2021/04/15 12:35:14;;;;;;;4.97;1.77;;;;;;;9.68;43.82;102765.44;6262476;28;19979;-81
2021/04/15 12:38:21;;;;;;;3.95;1.42;;;;;;;10.04;37.75;102767.41;6261570;28;20049;-84
2021/04/15 12:41:24;;;;;;;7.28;2.22;;;;;;;9.93;42.21;102766.72;6253076;28;20057;-83
2021/04/15 12:44:28;;;;;;;11.60;2.65;;;;;;;9.81;44.09;102759.06;6255274;28;20049;-82
2021/04/15 12:47:33;;;;;;;5.18;2.00;;;;;;;9.84;41.67;102759.88;6259712;28;20064;-83
2021/04/15 12:50:35;;;;;;;8.68;1.60;;;;;;;9.42;43.62;102758.00;6252489;28;20503;-83
2021/04/15 12:53:38;;;;;;;5.60;2.03;;;;;;;9.18;41.92;102759.25;6254252;28;20127;-84
2021/04/15 12:56:44;;;;;;;4.30;1.80;;;;;;;9.16;44.28;102769.75;6257475;28;20482;-83
2021/04/15 12:59:47;;;;;;;3.22;1.63;;;;;;;8.76;45.31;102772.06;6255719;28;20054;-84
2021/04/15 13:02:50;;;;;;;7.00;1.52;;;;;;;8.50;47.28;102765.41;6254167;28;20603;-83
2021/04/15 13:06:05;;;;;;;2.72;1.50;;;;;;;8.69;41.99;102765.19;6260333;28;20502;-85
2021/04/15 13:09:24;;;;;;;3.15;1.50;;;;;;;8.58;47.30;102760.06;6259939;28;20052;-83
2021/04/15 13:12:33;;;;;;;8.95;3.10;;;;;;;8.72;46.20;102752.91;6255106;28;20042;-83
2021/04/15 13:15:42;;;;;;;8.55;4.65;;;;;;;9.17;46.28;102736.50;6235922;28;20058;-81
2021/04/15 13:18:44;;;;;;;3.80;1.40;;;;;;;9.77;42.40;102741.66;6250049;28;20045;-83
2021/04/15 13:21:59;;;;;;;6.40;1.52;;;;;;;9.99;41.40;102735.13;6251935;28;20061;-82
2021/04/15 13:25:20;;;;;;;13.07;5.55;;;;;;;9.88;41.46;102744.94;6239392;28;20061;-82
2021/04/15 13:28:26;;;;;;;9.25;2.20;;;;;;;9.60;43.25;102734.06;6232816;28;20053;-82
2021/04/15 13:31:37;;;;;;;4.43;1.88;;;;;;;9.40;40.48;102730.03;6242190;28;20041;-83
2021/04/15 13:35:00;;;;;;;3.35;1.70;;;;;;;9.22;40.37;102729.44;6249961;28;20053;-84
2021/04/15 13:38:01;;;;;;;5.18;2.03;;;;;;;9.47;40.94;102724.66;6252637;28;20056;-83
2021/04/15 13:41:04;;;;;;;6.97;2.35;;;;;;;9.39;40.04;102722.16;6251597;28;20041;-82
2021/04/15 13:44:09;;;;;;;7.30;2.25;;;;;;;9.13;41.28;102720.84;6252712;28;20045;-83
2021/04/15 13:47:56;;;;;;;4.45;1.70;;;;;;;9.29;43.56;102716.22;6247544;28;20058;-83
2021/04/15 13:51:19;;;;;;;3.45;1.30;;;;;;;9.50;39.56;102714.13;6245766;28;20511;-85
2021/04/15 13:54:31;;;;;;;6.18;1.70;;;;;;;9.83;37.58;102710.03;6250817;28;20053;-80
2021/04/15 13:57:44;;;;;;;2.97;1.52;;;;;;;9.87;39.37;102707.31;6233366;28;20069;-83
2021/04/15 14:00:48;;;;;;;2.13;1.40;;;;;;;10.27;38.47;102709.19;6226254;28;20053;-83
2021/04/15 14:03:49;;;;;;;2.75;1.60;;;;;;;10.45;35.44;102701.81;6226189;28;20072;-83
2021/04/15 14:06:50;;;;;;;4.07;1.42;;;;;;;10.27;37.44;102703.94;6249069;28;20472;-82
2021/04/15 14:09:54;;;;;;;5.38;1.58;;;;;;;9.98;37.07;102706.22;6250999;28;20050;-83
2021/04/15 14:12:56;;;;;;;2.35;1.35;;;;;;;9.94;36.80;102702.78;6239573;28;20042;-83
2021/04/15 14:16:04;;;;;;;5.25;1.02;;;;;;;9.96;36.97;102701.03;6237748;28;20046;-80
2021/04/15 14:19:12;;;;;;;5.20;1.92;;;;;;;10.15;37.18;102693.63;6243101;28;20124;-83
2021/04/15 14:22:19;;;;;;;2.45;1.40;;;;;;;10.54;38.16;102691.13;6238517;28;20133;-84
2021/04/15 14:25:27;;;;;;;3.90;0.93;;;;;;;10.68;33.30;102683.78;6226347;28;20407;-83
2021/04/15 14:28:29;;;;;;;2.53;1.30;;;;;;;10.72;37.14;102692.44;6227785;28;20054;-83
2021/04/15 14:31:33;;;;;;;9.32;2.00;;;;;;;10.61;34.70;102679.53;6227389;28;20080;-84
2021/04/15 14:34:36;;;;;;;2.08;1.10;;;;;;;10.32;34.72;102677.56;6225609;28;20593;-83
2021/04/15 14:37:37;;;;;;;2.38;1.10;;;;;;;10.20;34.68;102683.91;6231078;28;20088;-84